createdAt,value
2022-12-25T00:01:21.762Z,83.22
2022-12-25T00:03:50.708Z,83.46
2022-12-25T00:06:18.779Z,83.17
2022-12-25T00:08:45.609Z,83.11
2022-12-25T00:11:15.118Z,83.14
2022-12-25T00:13:42.297Z,83.11
2022-12-25T00:16:14.942Z,83.27
2022-12-25T00:18:41.584Z,83.14
2022-12-25T00:21:08.033Z,83.10
2022-12-25T00:23:34.989Z,82.96
2022-12-25T00:26:11.330Z,82.95
2022-12-25T00:28:38.185Z,83.10
2022-12-25T00:31:06.877Z,83.19
2022-12-25T00:33:38.019Z,83.51
2022-12-25T00:36:06.611Z,83.65
2022-12-25T00:38:35.255Z,83.52
2022-12-25T00:41:11.754Z,83.61
2022-12-25T00:43:38.656Z,83.76
2022-12-25T00:46:06.427Z,83.94
2022-12-25T00:48:33.973Z,83.50
2022-12-25T00:51:03.803Z,83.81
2022-12-25T00:53:30.352Z,83.73
2022-12-25T00:56:00.297Z,83.74
2022-12-25T00:58:29.015Z,83.76
2022-12-25T01:00:55.809Z,83.88
2022-12-25T01:03:24.010Z,83.97
2022-12-25T01:06:07.183Z,84.11
2022-12-25T01:08:36.790Z,84.31
2022-12-25T01:11:06.988Z,84.51
2022-12-25T01:13:36.401Z,84.56
2022-12-25T01:16:07.336Z,85.45
2022-12-25T01:18:33.949Z,85.26
2022-12-25T01:21:09.697Z,85.44
2022-12-25T01:23:37.182Z,85.21
2022-12-25T01:26:05.492Z,85.07
2022-12-25T01:28:32.312Z,85.02
2022-12-25T01:31:01.831Z,84.77
2022-12-25T01:33:28.317Z,84.45
2022-12-25T01:35:55.262Z,84.31
2022-12-25T01:38:21.703Z,83.75
2022-12-25T01:40:48.162Z,83.87
2022-12-25T01:43:23.629Z,83.68
2022-12-25T01:45:51.877Z,83.71
2022-12-25T01:48:22.967Z,83.73
2022-12-25T01:50:57.792Z,83.72
2022-12-25T01:53:25.655Z,83.60
2022-12-25T01:55:57.980Z,83.51
2022-12-25T01:58:25.103Z,83.69
2022-12-25T02:00:52.657Z,83.50
2022-12-25T02:03:21.699Z,83.40
2022-12-25T02:05:48.587Z,83.21
2022-12-25T02:08:17.798Z,83.35
2022-12-25T02:10:44.951Z,83.38
2022-12-25T02:13:15.381Z,83.29
2022-12-25T02:16:00.532Z,83.21
2022-12-25T02:18:53.100Z,83.13
2022-12-25T02:21:50.865Z,83.14
2022-12-25T02:24:51.028Z,83.19
2022-12-25T02:27:44.651Z,83.09
2022-12-25T02:30:11.972Z,83.11
2022-12-25T02:32:49.526Z,83.00
2022-12-25T02:35:25.972Z,83.14
2022-12-25T02:37:58.379Z,83.17
2022-12-25T02:40:31.149Z,83.13
2022-12-25T02:43:22.033Z,82.96
2022-12-25T02:46:12.285Z,82.83
2022-12-25T02:49:02.437Z,82.73
2022-12-25T02:51:52.617Z,82.81
2022-12-25T02:54:42.701Z,82.70
2022-12-25T02:57:22.862Z,82.83
2022-12-25T03:00:13.169Z,82.63
2022-12-25T03:02:53.259Z,82.78
2022-12-25T03:05:43.472Z,83.11
2022-12-25T03:08:16.020Z,83.03
2022-12-25T03:11:03.757Z,82.85
2022-12-25T03:13:35.979Z,82.68
2022-12-25T03:16:14.166Z,82.78
2022-12-25T03:18:41.457Z,82.63
2022-12-25T03:21:24.374Z,82.35
2022-12-25T03:24:14.669Z,82.42
2022-12-25T03:26:54.695Z,81.97
2022-12-25T03:29:34.945Z,82.30
2022-12-25T03:32:17.783Z,82.17
2022-12-25T03:35:15.208Z,82.02
2022-12-25T03:38:25.410Z,82.21
2022-12-25T03:41:25.559Z,82.13
2022-12-25T03:44:25.785Z,81.90
2022-12-25T03:47:15.906Z,81.83
2022-12-25T03:50:06.189Z,82.04
2022-12-25T03:52:46.319Z,81.84
2022-12-25T03:55:36.551Z,81.93
2022-12-25T03:58:16.672Z,82.03
2022-12-25T04:00:56.855Z,81.86
2022-12-25T04:03:37.047Z,81.81
2022-12-25T04:06:17.106Z,81.81
2022-12-25T04:09:03.449Z,81.75
2022-12-25T04:11:47.446Z,81.90
2022-12-25T04:14:27.696Z,81.70
2022-12-25T04:17:07.780Z,81.53
2022-12-25T04:19:47.898Z,81.37
2022-12-25T04:22:28.090Z,81.59
2022-12-25T04:25:08.267Z,81.71
2022-12-25T04:27:48.453Z,81.62
2022-12-25T04:30:28.539Z,81.71
2022-12-25T04:33:08.751Z,81.52
2022-12-25T04:35:48.840Z,81.73
2022-12-25T04:38:20.166Z,81.59
2022-12-25T04:40:46.760Z,81.44
2022-12-25T04:43:13.177Z,81.47
2022-12-25T04:45:39.884Z,81.51
2022-12-25T04:48:06.384Z,81.52
2022-12-25T04:50:32.970Z,81.42
2022-12-25T04:52:59.611Z,81.24
2022-12-25T04:55:26.133Z,81.27
2022-12-25T04:57:52.618Z,81.62
2022-12-25T05:00:19.489Z,81.67
2022-12-25T05:02:46.285Z,81.52
2022-12-25T05:05:12.892Z,81.18
2022-12-25T05:07:39.445Z,81.27
2022-12-25T05:10:06.601Z,80.95
2022-12-25T05:12:33.185Z,80.98
2022-12-25T05:14:59.731Z,80.89
2022-12-25T05:17:26.240Z,80.66
2022-12-25T05:19:52.711Z,80.77
2022-12-25T05:22:19.207Z,80.83
2022-12-25T05:24:45.766Z,80.82
2022-12-25T05:27:12.256Z,80.76
2022-12-25T05:29:38.782Z,80.83
2022-12-25T05:32:05.814Z,80.74
2022-12-25T05:34:32.253Z,80.53
2022-12-25T05:36:58.869Z,80.64
2022-12-25T05:39:25.411Z,80.73
2022-12-25T05:41:51.853Z,80.75
2022-12-25T05:44:18.361Z,80.47
2022-12-25T05:46:44.882Z,80.64
2022-12-25T05:49:11.518Z,80.54
2022-12-25T05:51:38.085Z,80.72
2022-12-25T05:54:04.578Z,80.53
2022-12-25T05:56:31.192Z,80.82
2022-12-25T05:58:57.697Z,80.46
2022-12-25T06:01:27.159Z,80.53
2022-12-25T06:03:53.924Z,80.60
2022-12-25T06:06:20.405Z,80.60
2022-12-25T06:08:46.896Z,80.53
2022-12-25T06:11:14.446Z,80.63
2022-12-25T06:13:41.691Z,80.46
2022-12-25T06:16:11.449Z,80.47
2022-12-25T06:18:41.368Z,80.57
2022-12-25T06:21:10.651Z,80.40
2022-12-25T06:23:38.049Z,80.78
2022-12-25T06:26:08.027Z,80.73
2022-12-25T06:28:34.996Z,80.95
2022-12-25T06:31:10.666Z,80.70
2022-12-25T06:33:38.371Z,80.87
2022-12-25T06:36:07.722Z,81.16
2022-12-25T06:38:34.525Z,80.90
2022-12-25T06:41:05.219Z,81.03
2022-12-25T06:43:34.769Z,81.15
2022-12-25T06:46:04.978Z,81.66
2022-12-25T06:48:33.417Z,81.79
2022-12-25T06:51:00.230Z,81.99
2022-12-25T06:53:31.173Z,81.69
2022-12-25T06:56:05.001Z,81.52
2022-12-25T06:58:32.242Z,81.41
2022-12-25T07:00:58.981Z,81.14
2022-12-25T07:03:29.281Z,81.18
2022-12-25T07:05:55.988Z,81.06
2022-12-25T07:08:22.434Z,80.82
2022-12-25T07:10:49.005Z,81.02
2022-12-25T07:13:15.413Z,80.58
2022-12-25T07:15:42.043Z,80.40
2022-12-25T07:18:08.710Z,80.38
2022-12-25T07:20:36.258Z,80.39
2022-12-25T07:23:02.831Z,80.12
2022-12-25T07:25:35.245Z,79.87
2022-12-25T07:28:03.720Z,79.98
2022-12-25T07:30:30.239Z,79.92
2022-12-25T07:32:56.994Z,79.80
2022-12-25T07:35:23.398Z,79.79
2022-12-25T07:37:49.934Z,79.72
2022-12-25T07:40:16.387Z,79.73
2022-12-25T07:42:42.833Z,79.61
2022-12-25T07:45:09.865Z,79.26
2022-12-25T07:47:36.329Z,79.25
2022-12-25T07:50:03.015Z,79.02
2022-12-25T07:52:29.452Z,78.99
2022-12-25T07:54:55.843Z,78.81
2022-12-25T07:57:22.267Z,78.70
2022-12-25T07:59:48.841Z,78.67
2022-12-25T08:02:15.714Z,78.83
2022-12-25T08:04:42.861Z,78.71
2022-12-25T08:07:09.287Z,78.93
2022-12-25T08:09:36.163Z,78.63
2022-12-25T08:12:02.726Z,78.66
2022-12-25T08:14:29.198Z,78.66
2022-12-25T08:16:55.829Z,77.51
2022-12-25T08:19:22.264Z,78.30
2022-12-25T08:21:48.769Z,78.40
2022-12-25T08:24:15.299Z,78.34
2022-12-25T08:26:41.759Z,78.50
2022-12-25T08:29:08.274Z,78.48
2022-12-25T08:31:35.788Z,78.32
2022-12-25T08:34:04.989Z,78.37
2022-12-25T08:36:31.574Z,78.10
2022-12-25T08:39:02.670Z,78.14
2022-12-25T08:41:31.100Z,77.94
2022-12-25T08:43:58.200Z,77.91
2022-12-25T08:46:24.676Z,77.68
2022-12-25T08:48:51.137Z,77.57
2022-12-25T08:51:20.810Z,77.59
2022-12-25T08:53:50.262Z,77.46
2022-12-25T08:56:18.727Z,77.37
2022-12-25T08:58:45.709Z,77.10
2022-12-25T09:01:13.176Z,77.00
2022-12-25T09:03:39.855Z,76.41
2022-12-25T09:06:10.474Z,76.02
2022-12-25T09:08:42.409Z,75.84
2022-12-25T09:11:14.613Z,75.31
2022-12-25T09:13:41.316Z,74.58
2022-12-25T09:16:10.973Z,74.36
2022-12-25T09:18:38.272Z,73.32
2022-12-25T09:21:09.442Z,72.64
2022-12-25T09:23:36.459Z,72.68
2022-12-25T09:26:05.654Z,72.41
2022-12-25T09:28:32.176Z,72.07
2022-12-25T09:30:58.847Z,72.56
2022-12-25T09:33:25.473Z,72.63
2022-12-25T09:35:53.583Z,72.07
2022-12-25T09:38:20.067Z,72.19
2022-12-25T09:40:47.929Z,71.96
2022-12-25T09:43:20.136Z,71.63
2022-12-25T09:45:47.157Z,71.49
2022-12-25T09:48:15.208Z,71.61
2022-12-25T09:50:49.427Z,71.64
2022-12-25T09:53:22.576Z,71.24
2022-12-25T09:56:00.617Z,71.04
2022-12-25T09:58:29.847Z,69.81
2022-12-25T10:01:07.344Z,69.78
2022-12-25T10:03:58.177Z,69.30
2022-12-25T10:06:38.008Z,68.59
2022-12-25T10:09:40.330Z,68.18
2022-12-25T10:12:30.436Z,67.93
2022-12-25T10:15:30.966Z,67.71
2022-12-25T10:18:31.071Z,67.16
2022-12-25T10:21:01.438Z,66.11
2022-12-25T10:23:36.266Z,66.63
2022-12-25T10:26:03.775Z,66.10
2022-12-25T10:28:40.167Z,65.48
2022-12-25T10:31:20.450Z,66.01
2022-12-25T10:33:50.463Z,64.90
2022-12-25T10:36:21.262Z,63.52
2022-12-25T10:38:48.546Z,63.73
2022-12-25T10:41:33.655Z,62.28
2022-12-25T10:44:00.897Z,62.26
2022-12-25T10:46:30.689Z,61.86
2022-12-25T10:49:00.449Z,61.76
2022-12-25T10:51:39.118Z,60.38
2022-12-25T10:54:25.833Z,58.96
2022-12-25T10:57:04.288Z,55.85
2022-12-25T10:59:35.411Z,52.82
2022-12-25T11:02:18.627Z,54.25
2022-12-25T11:04:45.855Z,52.60
2022-12-25T11:07:23.662Z,53.53
2022-12-25T11:09:57.802Z,53.14
2022-12-25T11:12:32.232Z,49.97
2022-12-25T11:15:01.632Z,47.63
2022-12-25T11:17:28.133Z,49.07
2022-12-25T11:19:57.376Z,48.14
2022-12-25T11:22:26.101Z,48.81
2022-12-25T11:25:14.208Z,48.87
2022-12-25T11:27:42.681Z,48.85
2022-12-25T11:30:16.219Z,48.96
2022-12-25T11:32:46.007Z,48.30
2022-12-25T11:35:15.600Z,48.93
2022-12-25T11:37:49.696Z,49.24
2022-12-25T11:40:35.299Z,48.66
2022-12-25T11:43:12.668Z,45.34
2022-12-25T11:45:47.918Z,44.76
2022-12-25T11:48:25.470Z,42.92
2022-12-25T11:50:58.570Z,44.35
2022-12-25T11:53:34.365Z,42.92
2022-12-25T11:56:06.100Z,41.15
2022-12-25T11:58:41.535Z,42.93
2022-12-25T12:01:24.757Z,42.53
2022-12-25T12:03:54.461Z,43.30
2022-12-25T12:06:43.077Z,42.41
2022-12-25T12:09:49.663Z,39.75
2022-12-25T12:12:40.651Z,40.17
2022-12-25T12:15:27.513Z,39.61
2022-12-25T12:18:08.181Z,39.31
2022-12-25T12:20:39.815Z,40.52
2022-12-25T12:23:14.961Z,41.28
2022-12-25T12:25:45.098Z,42.84
2022-12-25T12:28:26.403Z,43.15
2022-12-25T12:31:04.043Z,43.63
2022-12-25T12:33:39.432Z,44.27
2022-12-25T12:36:10.744Z,44.07
2022-12-25T12:38:40.362Z,44.53
2022-12-25T12:41:12.187Z,45.07
2022-12-25T12:43:52.359Z,46.06
2022-12-25T12:46:31.503Z,46.55
2022-12-25T12:49:29.651Z,47.06
2022-12-25T12:52:32.599Z,47.39
2022-12-25T12:55:06.097Z,48.47
2022-12-25T12:57:39.203Z,49.88
2022-12-25T13:00:17.806Z,51.99
2022-12-25T13:03:02.217Z,56.19
2022-12-25T13:05:45.634Z,57.37
2022-12-25T13:08:30.032Z,57.62
2022-12-25T13:11:17.670Z,57.13
2022-12-25T13:13:45.817Z,57.60
2022-12-25T13:16:28.786Z,57.41
2022-12-25T13:18:56.657Z,59.68
2022-12-25T13:21:26.691Z,58.62
2022-12-25T13:23:58.916Z,59.31
2022-12-25T13:26:26.963Z,60.79
2022-12-25T13:28:55.395Z,60.65
2022-12-25T13:31:25.637Z,60.34
2022-12-25T13:34:04.412Z,61.44
2022-12-25T13:36:37.198Z,62.16
2022-12-25T13:39:08.070Z,62.45
2022-12-25T13:41:53.034Z,65.10
2022-12-25T13:44:24.176Z,64.81
2022-12-25T13:46:51.112Z,65.46
2022-12-25T13:49:21.167Z,65.32
2022-12-25T13:51:48.696Z,64.41
2022-12-25T13:54:17.386Z,63.10
2022-12-25T13:56:50.121Z,62.33
2022-12-25T13:59:20.293Z,62.56
2022-12-25T14:01:49.056Z,62.91
2022-12-25T14:04:20.070Z,63.05
2022-12-25T14:06:47.647Z,63.21
2022-12-25T14:09:15.680Z,63.49
2022-12-25T14:11:46.113Z,64.23
2022-12-25T14:14:19.037Z,64.42
2022-12-25T14:16:48.941Z,65.73
2022-12-25T14:19:26.029Z,65.38
2022-12-25T14:22:00.532Z,65.76
2022-12-25T14:24:29.365Z,66.97
2022-12-25T14:26:58.366Z,69.29
2022-12-25T14:29:28.607Z,70.79
2022-12-25T14:31:58.140Z,69.77
2022-12-25T14:34:27.173Z,69.65
2022-12-25T14:36:54.273Z,69.39
2022-12-25T14:39:30.717Z,68.83
2022-12-25T14:41:57.243Z,68.95
2022-12-25T14:44:33.983Z,69.33
2022-12-25T14:47:18.909Z,69.25
2022-12-25T14:49:46.616Z,69.35
2022-12-25T14:52:22.006Z,69.40
2022-12-25T14:54:53.477Z,69.91
2022-12-25T14:57:26.623Z,70.14
2022-12-25T14:59:57.089Z,70.20
2022-12-25T15:02:24.494Z,70.60
2022-12-25T15:04:53.965Z,70.76
2022-12-25T15:07:30.346Z,70.87
2022-12-25T15:10:27.008Z,71.07
2022-12-25T15:12:43.552Z,72.33
2022-12-25T15:15:10.224Z,71.86
2022-12-25T15:17:37.553Z,72.36
2022-12-25T15:20:05.698Z,72.82
2022-12-25T15:22:53.913Z,72.65
2022-12-25T15:25:21.072Z,72.76
2022-12-25T15:27:48.067Z,73.23
2022-12-25T15:30:15.080Z,73.44
2022-12-25T15:32:41.532Z,73.41
2022-12-25T15:35:15.973Z,73.33
2022-12-25T15:37:42.534Z,73.55
2022-12-25T15:40:12.293Z,73.61
2022-12-25T15:42:39.491Z,73.52
2022-12-25T15:45:18.376Z,73.56
2022-12-25T15:47:45.280Z,73.62
2022-12-25T15:50:11.858Z,73.87
2022-12-25T15:52:38.403Z,73.89
2022-12-25T15:55:05.928Z,74.08
2022-12-25T15:57:34.425Z,73.99
2022-12-25T16:00:03.140Z,74.05
2022-12-25T16:02:41.081Z,74.27
2022-12-25T16:05:10.433Z,75.12
2022-12-25T16:07:37.370Z,75.09
2022-12-25T16:10:05.940Z,74.98
2022-12-25T16:12:32.601Z,74.68
2022-12-25T16:14:59.057Z,75.01
2022-12-25T16:17:25.626Z,75.46
2022-12-25T16:19:52.182Z,75.16
2022-12-25T16:22:22.386Z,75.16
2022-12-25T16:24:49.311Z,75.29
2022-12-25T16:27:15.722Z,75.73
2022-12-25T16:29:42.152Z,75.46
2022-12-25T16:32:11.535Z,75.42
2022-12-25T16:34:38.070Z,75.69
2022-12-25T16:37:04.895Z,76.00
2022-12-25T16:39:31.644Z,76.04
2022-12-25T16:41:58.461Z,76.28
2022-12-25T16:44:24.911Z,76.51
2022-12-25T16:46:51.553Z,76.87
2022-12-25T16:49:17.941Z,76.48
2022-12-25T16:51:44.458Z,76.96
2022-12-25T16:54:10.962Z,77.34
2022-12-25T16:56:37.711Z,77.27
2022-12-25T16:59:04.147Z,77.24
2022-12-25T17:01:30.794Z,77.38
2022-12-25T17:04:00.759Z,77.26
2022-12-25T17:06:28.323Z,77.38
2022-12-25T17:08:57.705Z,77.41
2022-12-25T17:11:28.895Z,77.14
2022-12-25T17:13:59.861Z,77.03
2022-12-25T17:16:29.408Z,77.30
2022-12-25T17:19:01.473Z,76.77
2022-12-25T17:21:29.111Z,77.19
2022-12-25T17:24:02.943Z,77.28
2022-12-25T17:26:32.958Z,77.34
2022-12-25T17:28:59.874Z,77.49
2022-12-25T17:31:27.647Z,77.48
2022-12-25T17:33:54.374Z,77.99
2022-12-25T17:36:21.428Z,78.08
2022-12-25T17:38:48.315Z,78.34
2022-12-25T17:41:16.928Z,78.85
2022-12-25T17:43:44.835Z,80.15
2022-12-25T17:46:21.973Z,80.17
2022-12-25T17:48:49.600Z,79.88
2022-12-25T17:51:20.415Z,79.66
2022-12-25T17:53:50.280Z,81.33
2022-12-25T17:56:18.472Z,82.23
2022-12-25T17:58:51.023Z,81.10
2022-12-25T18:01:19.070Z,81.11
2022-12-25T18:03:45.899Z,81.00
2022-12-25T18:06:16.157Z,81.13
2022-12-25T18:08:43.845Z,81.44
2022-12-25T18:11:14.502Z,81.57
2022-12-25T18:13:44.505Z,81.63
2022-12-25T18:16:15.335Z,81.77
2022-12-25T18:18:47.990Z,81.62
2022-12-25T18:21:19.117Z,82.14
2022-12-25T18:23:45.739Z,82.35
2022-12-25T18:26:12.826Z,82.33
2022-12-25T18:28:39.575Z,82.17
2022-12-25T18:31:08.590Z,82.10
2022-12-25T18:33:35.575Z,82.15
2022-12-25T18:36:05.614Z,82.27
2022-12-25T18:38:35.576Z,82.32
2022-12-25T18:41:05.657Z,82.08
2022-12-25T18:43:52.320Z,82.08
2022-12-25T18:46:23.498Z,82.00
2022-12-25T18:48:50.110Z,82.16
2022-12-25T18:51:16.857Z,82.22
2022-12-25T18:53:43.348Z,82.43
2022-12-25T18:56:13.008Z,82.41
2022-12-25T18:58:40.789Z,82.73
2022-12-25T19:01:17.747Z,82.40
2022-12-25T19:03:45.607Z,83.25
2022-12-25T19:06:23.267Z,82.92
2022-12-25T19:08:49.829Z,83.13
2022-12-25T19:11:16.556Z,83.53
2022-12-25T19:13:44.365Z,83.78
2022-12-25T19:16:11.786Z,83.81
2022-12-25T19:18:39.184Z,83.89
2022-12-25T19:21:08.010Z,84.20
2022-12-25T19:23:38.515Z,84.15
2022-12-25T19:26:07.288Z,84.47
2022-12-25T19:28:40.260Z,84.72
2022-12-25T19:31:08.445Z,84.86
2022-12-25T19:33:40.563Z,84.81
2022-12-25T19:36:10.973Z,85.00
2022-12-25T19:38:38.065Z,84.92
2022-12-25T19:41:12.507Z,84.97
2022-12-25T19:43:41.482Z,84.85
2022-12-25T19:46:15.956Z,85.01
2022-12-25T19:48:45.639Z,85.02
2022-12-25T19:51:28.914Z,84.80
2022-12-25T19:53:55.707Z,84.67
2022-12-25T19:56:27.514Z,84.71
2022-12-25T19:58:55.128Z,84.85
2022-12-25T20:01:24.393Z,84.72
2022-12-25T20:03:51.342Z,84.76
2022-12-25T20:06:25.685Z,84.79
2022-12-25T20:08:56.093Z,84.85
2022-12-25T20:11:24.900Z,84.97
2022-12-25T20:13:51.744Z,84.95
2022-12-25T20:16:18.392Z,85.05
2022-12-25T20:18:45.391Z,85.05
2022-12-25T20:21:14.641Z,85.38
2022-12-25T20:23:42.502Z,85.49
2022-12-25T20:26:10.189Z,85.92
2022-12-25T20:28:38.203Z,87.32
2022-12-25T20:31:07.641Z,87.39
2022-12-25T20:33:35.159Z,86.96
2022-12-25T20:36:03.021Z,87.89
2022-12-25T20:38:36.322Z,91.56
2022-12-25T20:41:29.725Z,90.12
2022-12-25T20:43:56.774Z,88.77
2022-12-25T20:46:24.941Z,88.16
2022-12-25T20:48:53.095Z,88.00
2022-12-25T20:51:22.394Z,87.81
2022-12-25T20:53:50.226Z,87.61
2022-12-25T20:56:18.996Z,87.55
2022-12-25T20:58:45.729Z,87.53
2022-12-25T21:01:15.495Z,87.56
2022-12-25T21:03:42.200Z,87.56
2022-12-25T21:06:09.244Z,87.25
2022-12-25T21:08:36.504Z,87.76
2022-12-25T21:11:04.893Z,87.44
2022-12-25T21:13:34.390Z,87.17
2022-12-25T21:16:04.941Z,87.33
2022-12-25T21:18:35.045Z,87.24
2022-12-25T21:21:06.846Z,87.47
2022-12-25T21:23:35.086Z,87.04
2022-12-25T21:26:31.195Z,87.12
2022-12-25T21:29:00.046Z,87.38
2022-12-25T21:31:27.160Z,87.41
2022-12-25T21:33:56.745Z,87.54
2022-12-25T21:36:26.942Z,87.63
2022-12-25T21:38:56.938Z,87.69
2022-12-25T21:41:25.170Z,87.72
2022-12-25T21:43:51.827Z,87.94
2022-12-25T21:46:19.135Z,87.86
2022-12-25T21:48:45.932Z,87.84
2022-12-25T21:51:35.052Z,87.80
2022-12-25T21:54:02.633Z,87.84
2022-12-25T21:56:31.034Z,87.53
2022-12-25T21:58:59.727Z,87.63
2022-12-25T22:01:28.274Z,87.58
2022-12-25T22:03:56.078Z,87.41
2022-12-25T22:06:35.959Z,87.53
2022-12-25T22:09:06.181Z,87.43
2022-12-25T22:11:46.360Z,87.61
2022-12-25T22:14:50.300Z,87.51
2022-12-25T22:17:26.717Z,87.48
2022-12-25T22:19:53.843Z,87.52
2022-12-25T22:22:23.651Z,87.31
2022-12-25T22:24:52.627Z,87.31
2022-12-25T22:27:21.069Z,87.51
2022-12-25T22:29:51.405Z,87.74
2022-12-25T22:32:18.909Z,88.02
2022-12-25T22:34:45.430Z,87.98
2022-12-25T22:37:16.433Z,90.70
2022-12-25T22:39:43.696Z,89.44
2022-12-25T22:42:11.332Z,90.02
2022-12-25T22:44:37.929Z,89.83
2022-12-25T22:47:04.566Z,89.56
2022-12-25T22:49:30.942Z,90.13
2022-12-25T22:51:57.391Z,89.99
2022-12-25T22:54:24.830Z,89.56
2022-12-25T22:56:52.689Z,89.38
2022-12-25T22:59:20.968Z,89.32
2022-12-25T23:01:48.531Z,89.09
2022-12-25T23:04:15.425Z,89.22
2022-12-25T23:06:43.381Z,89.15
2022-12-25T23:09:18.866Z,88.95
2022-12-25T23:11:49.752Z,89.04
2022-12-25T23:14:30.028Z,89.03
2022-12-25T23:16:57.210Z,88.91
2022-12-25T23:19:40.326Z,88.75
2022-12-25T23:22:20.496Z,89.01
2022-12-25T23:25:00.658Z,88.60
2022-12-25T23:27:27.155Z,89.01
2022-12-25T23:29:53.557Z,88.55
2022-12-25T23:32:24.786Z,88.60
2022-12-25T23:34:52.127Z,88.65
2022-12-25T23:37:19.010Z,91.91
2022-12-25T23:39:46.503Z,92.19
2022-12-25T23:42:16.244Z,92.50
2022-12-25T23:44:43.971Z,94.95
2022-12-25T23:47:11.227Z,93.92
2022-12-25T23:49:38.004Z,92.23
2022-12-25T23:52:05.033Z,91.56
2022-12-25T23:54:32.878Z,91.45
2022-12-25T23:56:59.889Z,91.34
2022-12-25T23:59:28.493Z,90.85
